Time,TemperatureF,DewpointF,PressureIn,WindDirection,WindDirectionDegrees,WindSpeedMPH,WindSpeedGustMPH,Humidity,HourlyPrecipIn,Conditions,Clouds,dailyrainin,SoftwareType,DateUTC
2013-08-18 00:00:00,65.2,52.3,29.83,ENE,62,0.0,0.0,63,0.00,,,0.00,Wunderground v.1.15,2013-08-18 07:00:00,
2013-08-18 00:05:00,65.0,52.5,29.83,ENE,62,0.0,0.0,64,0.00,,,0.00,Wunderground v.1.15,2013-08-18 07:05:00,
2013-08-18 00:10:00,64.7,52.2,29.83,ENE,62,0.0,0.0,64,0.00,,,0.00,Wunderground v.1.15,2013-08-18 07:10:00,
2013-08-18 00:20:00,64.3,51.9,29.83,ENE,62,0.0,0.0,64,0.00,,,0.00,Wunderground v.1.15,2013-08-18 07:20:00,
2013-08-18 00:30:00,64.0,52.0,29.83,ENE,62,0.0,0.0,65,0.00,,,0.00,Wunderground v.1.15,2013-08-18 07:30:00,
2013-08-18 00:35:00,63.7,51.7,29.83,ENE,62,0.0,0.0,65,0.00,,,0.00,Wunderground v.1.15,2013-08-18 07:35:00,
2013-08-18 00:40:00,63.5,51.5,29.83,ENE,62,0.0,0.0,65,0.00,,,0.00,Wunderground v.1.15,2013-08-18 07:40:00,
2013-08-18 00:50:00,63.4,51.4,29.83,ENE,62,0.0,0.0,65,0.00,,,0.00,Wunderground v.1.15,2013-08-18 07:50:00,
2013-08-18 00:55:00,63.1,51.6,29.83,ENE,62,0.0,0.0,66,0.00,,,0.00,Wunderground v.1.15,2013-08-18 07:55:00,
2013-08-18 01:00:00,62.7,51.6,29.82,ENE,62,0.0,0.0,67,0.00,,,0.00,Wunderground v.1.15,2013-08-18 08:00:00,
2013-08-18 01:10:00,62.4,51.3,29.82,ENE,62,0.0,0.0,67,0.00,,,0.00,Wunderground v.1.15,2013-08-18 08:10:00,
2013-08-18 01:20:00,62.4,51.7,29.82,ENE,62,0.0,0.0,68,0.00,,,0.00,Wunderground v.1.15,2013-08-18 08:20:00,
2013-08-18 01:25:00,62.3,51.6,29.82,ENE,62,0.0,0.0,68,0.00,,,0.00,Wunderground v.1.15,2013-08-18 08:25:00,
2013-08-18 01:30:00,62.1,51.4,29.83,ENE,62,0.0,1.0,68,0.00,,,0.00,Wunderground v.1.15,2013-08-18 08:30:00,
2013-08-18 01:40:00,61.6,51.3,29.83,ENE,62,0.0,0.0,69,0.00,,,0.00,Wunderground v.1.15,2013-08-18 08:40:00,
2013-08-18 01:45:00,61.6,51.3,29.83,ENE,62,0.0,0.0,69,0.00,,,0.00,Wunderground v.1.15,2013-08-18 08:45:00,
2013-08-18 01:50:00,61.5,50.8,29.83,ENE,62,0.0,0.0,68,0.00,,,0.00,Wunderground v.1.15,2013-08-18 08:50:00,
2013-08-18 01:55:00,61.3,51.0,29.83,ENE,62,0.0,0.0,69,0.00,,,0.00,Wunderground v.1.15,2013-08-18 08:55:00,
2013-08-18 02:05:00,61.3,51.0,29.83,ENE,62,0.0,0.0,69,0.00,,,0.00,Wunderground v.1.15,2013-08-18 09:05:00,
2013-08-18 02:10:00,61.3,51.0,29.83,ENE,62,0.0,1.0,69,0.00,,,0.00,Wunderground v.1.15,2013-08-18 09:10:00,
2013-08-18 02:20:00,61.2,50.9,29.82,ENE,62,0.0,0.0,69,0.00,,,0.00,Wunderground v.1.15,2013-08-18 09:20:00,
2013-08-18 02:25:00,61.0,50.8,29.82,ENE,62,0.0,0.0,69,0.00,,,0.00,Wunderground v.1.15,2013-08-18 09:25:00,
2013-08-18 02:30:00,61.0,50.8,29.82,ENE,62,0.0,0.0,69,0.00,,,0.00,Wunderground v.1.15,2013-08-18 09:30:00,
2013-08-18 02:40:00,61.0,50.8,29.82,ENE,62,0.0,0.0,69,0.00,,,0.00,Wunderground v.1.15,2013-08-18 09:40:00,
2013-08-18 02:45:00,60.9,50.7,29.82,ENE,62,0.0,0.0,69,0.00,,,0.00,Wunderground v.1.15,2013-08-18 09:45:00,
2013-08-18 02:50:00,60.9,50.7,29.82,ENE,62,0.0,0.0,69,0.00,,,0.00,Wunderground v.1.15,2013-08-18 09:50:00,
2013-08-18 02:55:00,60.7,50.5,29.82,ENE,62,0.0,0.0,69,0.00,,,0.00,Wunderground v.1.15,2013-08-18 09:55:00,
2013-08-18 03:00:00,60.5,50.3,29.82,ENE,62,0.0,0.0,69,0.00,,,0.00,Wunderground v.1.15,2013-08-18 10:00:00,
2013-08-18 03:10:00,60.2,50.4,29.82,ENE,62,0.0,0.0,70,0.00,,,0.00,Wunderground v.1.15,2013-08-18 10:10:00,
2013-08-18 03:15:00,60.2,50.4,29.83,ENE,62,0.0,0.0,70,0.00,,,0.00,Wunderground v.1.15,2013-08-18 10:15:00,
2013-08-18 03:20:00,60.1,50.3,29.83,ENE,62,0.0,0.0,70,0.00,,,0.00,Wunderground v.1.15,2013-08-18 10:20:00,
2013-08-18 03:30:00,59.9,50.1,29.83,ENE,62,0.0,0.0,70,0.00,,,0.00,Wunderground v.1.15,2013-08-18 10:30:00,
2013-08-18 03:35:00,59.9,50.5,29.83,ENE,62,0.0,0.0,71,0.00,,,0.00,Wunderground v.1.15,2013-08-18 10:35:00,
2013-08-18 03:45:00,59.6,50.2,29.83,ENE,62,0.0,1.0,71,0.00,,,0.00,Wunderground v.1.15,2013-08-18 10:45:00,
2013-08-18 03:50:00,59.6,50.2,29.83,ENE,62,1.0,2.0,71,0.00,,,0.00,Wunderground v.1.15,2013-08-18 10:50:00,
2013-08-18 03:55:00,59.6,50.2,29.83,ENE,62,1.0,2.0,71,0.00,,,0.00,Wunderground v.1.15,2013-08-18 10:55:00,
2013-08-18 04:00:00,59.8,50.4,29.83,ENE,62,1.0,1.0,71,0.00,,,0.00,Wunderground v.1.15,2013-08-18 11:00:00,
2013-08-18 04:05:00,59.9,50.1,29.83,ENE,62,0.0,1.0,70,0.00,,,0.00,Wunderground v.1.15,2013-08-18 11:05:00,
2013-08-18 04:15:00,59.9,50.5,29.83,ENE,62,0.0,1.0,71,0.00,,,0.00,Wunderground v.1.15,2013-08-18 11:15:00,
2013-08-18 04:20:00,59.9,50.1,29.83,ENE,62,0.0,0.0,70,0.00,,,0.00,Wunderground v.1.15,2013-08-18 11:20:00,
2013-08-18 04:30:00,59.8,50.4,29.83,ENE,62,0.0,0.0,71,0.00,,,0.00,Wunderground v.1.15,2013-08-18 11:30:00,
2013-08-18 04:35:00,59.6,50.2,29.83,ENE,62,0.0,0.0,71,0.00,,,0.00,Wunderground v.1.15,2013-08-18 11:35:00,
2013-08-18 04:40:00,59.5,50.1,29.83,ENE,62,0.0,0.0,71,0.00,,,0.00,Wunderground v.1.15,2013-08-18 11:40:00,
2013-08-18 04:50:00,59.0,50.0,29.82,ENE,62,0.0,0.0,72,0.00,,,0.00,Wunderground v.1.15,2013-08-18 11:50:00,
2013-08-18 04:55:00,58.9,49.9,29.82,ENE,62,0.0,0.0,72,0.00,,,0.00,Wunderground v.1.15,2013-08-18 11:55:00,
2013-08-18 05:00:00,58.9,49.9,29.83,ENE,62,0.0,0.0,72,0.00,,,0.00,Wunderground v.1.15,2013-08-18 12:00:00,
2013-08-18 05:10:00,58.6,50.0,29.83,ENE,62,0.0,0.0,73,0.00,,,0.00,Wunderground v.1.15,2013-08-18 12:10:00,
2013-08-18 05:15:00,58.4,49.8,29.83,ENE,62,0.0,0.0,73,0.00,,,0.00,Wunderground v.1.15,2013-08-18 12:15:00,
2013-08-18 05:25:00,58.1,49.5,29.83,ENE,62,0.0,0.0,73,0.00,,,0.00,Wunderground v.1.15,2013-08-18 12:25:00,
2013-08-18 05:30:00,57.8,49.6,29.83,ENE,62,0.0,0.0,74,0.00,,,0.00,Wunderground v.1.15,2013-08-18 12:30:00,
2013-08-18 05:35:00,57.6,49.4,29.83,ENE,62,0.0,0.0,74,0.00,,,0.00,Wunderground v.1.15,2013-08-18 12:35:00,
2013-08-18 05:40:00,57.6,49.4,29.83,ENE,62,0.0,0.0,74,0.00,,,0.00,Wunderground v.1.15,2013-08-18 12:40:00,
2013-08-18 05:50:00,57.3,49.4,29.84,ENE,62,0.0,0.0,75,0.00,,,0.00,Wunderground v.1.15,2013-08-18 12:50:00,
2013-08-18 05:55:00,57.2,49.3,29.84,ENE,62,0.0,0.0,75,0.00,,,0.00,Wunderground v.1.15,2013-08-18 12:55:00,
2013-08-18 06:00:00,57.2,49.3,29.84,ENE,62,0.0,0.0,75,0.00,,,0.00,Wunderground v.1.15,2013-08-18 13:00:00,
2013-08-18 06:10:00,57.0,49.2,29.84,ENE,62,0.0,0.0,75,0.00,,,0.00,Wunderground v.1.15,2013-08-18 13:10:00,
2013-08-18 06:15:00,56.9,49.4,29.85,ENE,62,0.0,0.0,76,0.00,,,0.00,Wunderground v.1.15,2013-08-18 13:15:00,
2013-08-18 06:20:00,56.7,49.2,29.85,ENE,62,0.0,0.0,76,0.00,,,0.00,Wunderground v.1.15,2013-08-18 13:20:00,
2013-08-18 06:25:00,56.6,49.1,29.85,ENE,62,0.0,0.0,76,0.00,,,0.00,Wunderground v.1.15,2013-08-18 13:25:00,
2013-08-18 06:30:00,56.5,49.0,29.85,ENE,62,0.0,0.0,76,0.00,,,0.00,Wunderground v.1.15,2013-08-18 13:30:00,
2013-08-18 06:40:00,56.3,49.2,29.85,ENE,62,0.0,0.0,77,0.00,,,0.00,Wunderground v.1.15,2013-08-18 13:40:00,
2013-08-18 06:45:00,56.3,49.2,29.85,ENE,62,0.0,0.0,77,0.00,,,0.00,Wunderground v.1.15,2013-08-18 13:45:00,
2013-08-18 06:50:00,56.2,48.7,29.85,ENE,62,0.0,1.0,76,0.00,,,0.00,Wunderground v.1.15,2013-08-18 13:50:00,
2013-08-18 07:00:00,56.3,48.8,29.86,ENE,62,0.0,0.0,76,0.00,,,0.00,Wunderground v.1.15,2013-08-18 14:00:00,
2013-08-18 07:05:00,56.5,49.4,29.86,ENE,62,0.0,0.0,77,0.00,,,0.00,Wunderground v.1.15,2013-08-18 14:05:00,
2013-08-18 07:10:00,56.6,49.1,29.86,ENE,62,0.0,0.0,76,0.00,,,0.00,Wunderground v.1.15,2013-08-18 14:10:00,
2013-08-18 07:15:00,57.0,49.5,29.87,ENE,62,0.0,0.0,76,0.00,,,0.00,Wunderground v.1.15,2013-08-18 14:15:00,
2013-08-18 07:25:00,58.1,49.9,29.87,ENE,62,0.0,0.0,74,0.00,,,0.00,Wunderground v.1.15,2013-08-18 14:25:00,
2013-08-18 07:30:00,58.7,50.1,29.87,ENE,62,0.0,0.0,73,0.00,,,0.00,Wunderground v.1.15,2013-08-18 14:30:00,
2013-08-18 07:35:00,59.3,50.6,29.87,ENE,62,0.0,0.0,73,0.00,,,0.00,Wunderground v.1.15,2013-08-18 14:35:00,
2013-08-18 07:40:00,59.9,50.8,29.87,ENE,62,0.0,0.0,72,0.00,,,0.00,Wunderground v.1.15,2013-08-18 14:40:00,
2013-08-18 07:50:00,62.0,51.3,29.87,ENE,62,0.0,0.0,68,0.00,,,0.00,Wunderground v.1.15,2013-08-18 14:50:00,
2013-08-18 07:55:00,62.7,51.6,29.87,ENE,62,0.0,0.0,67,0.00,,,0.00,Wunderground v.1.15,2013-08-18 14:55:00,
2013-08-18 08:00:00,63.4,51.4,29.87,ENE,62,0.0,0.0,65,0.00,,,0.00,Wunderground v.1.15,2013-08-18 15:00:00,
2013-08-18 08:05:00,64.3,51.9,29.87,ENE,62,0.0,0.0,64,0.00,,,0.00,Wunderground v.1.15,2013-08-18 15:05:00,
2013-08-18 08:10:00,65.2,52.3,29.87,ENE,62,0.0,0.0,63,0.00,,,0.00,Wunderground v.1.15,2013-08-18 15:10:00,
2013-08-18 08:20:00,66.3,52.0,29.87,ENE,62,0.0,0.0,60,0.00,,,0.00,Wunderground v.1.15,2013-08-18 15:20:00,
2013-08-18 08:25:00,66.8,52.0,29.87,ENE,62,0.0,0.0,59,0.00,,,0.00,Wunderground v.1.15,2013-08-18 15:25:00,
2013-08-18 08:30:00,67.6,52.3,29.87,ENE,62,0.0,0.0,58,0.00,,,0.00,Wunderground v.1.15,2013-08-18 15:30:00,
2013-08-18 08:40:00,70.3,53.4,29.87,ENE,62,0.0,0.0,55,0.00,,,0.00,Wunderground v.1.15,2013-08-18 15:40:00,
2013-08-18 08:45:00,70.9,52.9,29.87,ENE,62,0.0,0.0,53,0.00,,,0.00,Wunderground v.1.15,2013-08-18 15:45:00,
2013-08-18 08:50:00,72.1,52.4,29.87,ENE,62,0.0,0.0,50,0.00,,,0.00,Wunderground v.1.15,2013-08-18 15:50:00,
2013-08-18 08:55:00,73.2,52.9,29.87,ENE,62,0.0,0.0,49,0.00,,,0.00,Wunderground v.1.15,2013-08-18 15:55:00,
2013-08-18 09:00:00,74.4,52.3,29.87,ENE,62,0.0,0.0,46,0.00,,,0.00,Wunderground v.1.15,2013-08-18 16:00:00,
2013-08-18 09:10:00,75.4,53.2,29.87,ENE,62,0.0,0.0,46,0.00,,,0.00,Wunderground v.1.15,2013-08-18 16:10:00,
2013-08-18 09:15:00,76.0,53.1,29.86,ENE,62,0.0,1.0,45,0.00,,,0.00,Wunderground v.1.15,2013-08-18 16:15:00,
2013-08-18 09:20:00,76.7,53.1,29.86,ENE,62,0.0,0.0,44,0.00,,,0.00,Wunderground v.1.15,2013-08-18 16:20:00,
2013-08-18 09:25:00,77.4,53.1,29.86,ENE,62,0.0,0.0,43,0.00,,,0.00,Wunderground v.1.15,2013-08-18 16:25:00,
2013-08-18 09:30:00,78.3,53.3,29.86,ENE,62,0.0,0.0,42,0.00,,,0.00,Wunderground v.1.15,2013-08-18 16:30:00,
2013-08-18 09:40:00,80.1,52.9,29.86,ENE,62,0.0,0.0,39,0.00,,,0.00,Wunderground v.1.15,2013-08-18 16:40:00,
2013-08-18 09:45:00,80.9,52.9,29.86,ENE,62,0.0,0.0,38,0.00,,,0.00,Wunderground v.1.15,2013-08-18 16:45:00,
2013-08-18 09:50:00,81.8,53.0,29.86,ENE,62,0.0,0.0,37,0.00,,,0.00,Wunderground v.1.15,2013-08-18 16:50:00,
2013-08-18 10:00:00,83.0,53.3,29.85,ENE,68,0.0,0.0,36,0.00,,,0.00,Wunderground v.1.15,2013-08-18 17:00:00,
2013-08-18 10:05:00,83.0,52.5,29.85,ENE,68,0.0,0.0,35,0.00,,,0.00,Wunderground v.1.15,2013-08-18 17:05:00,
2013-08-18 10:10:00,83.4,52.9,29.85,ENE,68,0.0,0.0,35,0.00,,,0.00,Wunderground v.1.15,2013-08-18 17:10:00,
2013-08-18 10:15:00,84.1,52.7,29.85,ENE,68,0.0,0.0,34,0.00,,,0.00,Wunderground v.1.15,2013-08-18 17:15:00,
2013-08-18 10:20:00,84.7,52.4,29.85,East,92,0.0,0.0,33,0.00,,,0.00,Wunderground v.1.15,2013-08-18 17:20:00,
2013-08-18 10:30:00,85.7,52.4,29.85,East,95,0.0,1.0,32,0.00,,,0.00,Wunderground v.1.15,2013-08-18 17:30:00,
2013-08-18 10:35:00,86.5,52.3,29.85,East,95,0.0,1.0,31,0.00,,,0.00,Wunderground v.1.15,2013-08-18 17:35:00,
2013-08-18 10:40:00,87.0,51.8,29.85,East,95,0.0,0.0,30,0.00,,,0.00,Wunderground v.1.15,2013-08-18 17:40:00,
2013-08-18 10:45:00,87.6,50.5,29.84,East,95,0.0,0.0,28,0.00,,,0.00,Wunderground v.1.15,2013-08-18 17:45:00,
2013-08-18 10:50:00,88.8,51.5,29.84,East,94,0.0,0.0,28,0.00,,,0.00,Wunderground v.1.15,2013-08-18 17:50:00,
2013-08-18 11:00:00,90.3,51.8,29.83,East,94,0.0,0.0,27,0.00,,,0.00,Wunderground v.1.15,2013-08-18 18:00:00,
2013-08-18 11:05:00,90.7,53.1,29.83,East,94,0.0,1.0,28,0.00,,,0.00,Wunderground v.1.15,2013-08-18 18:05:00,
2013-08-18 11:10:00,91.6,50.8,29.83,East,94,0.0,1.0,25,0.00,,,0.00,Wunderground v.1.15,2013-08-18 18:10:00,
2013-08-18 11:20:00,92.3,51.4,29.83,ESE,113,1.0,2.0,25,0.00,,,0.00,Wunderground v.1.15,2013-08-18 18:20:00,
2013-08-18 11:25:00,92.5,51.6,29.83,ESE,111,2.0,4.0,25,0.00,,,0.00,Wunderground v.1.15,2013-08-18 18:25:00,
2013-08-18 11:30:00,93.2,51.0,29.83,NE,53,2.0,2.0,24,0.00,,,0.00,Wunderground v.1.15,2013-08-18 18:30:00,
2013-08-18 11:35:00,93.8,50.4,29.83,SSE,150,1.0,2.0,23,0.00,,,0.00,Wunderground v.1.15,2013-08-18 18:35:00,
2013-08-18 11:40:00,94.9,50.1,29.83,ENE,57,1.0,1.0,22,0.00,,,0.00,Wunderground v.1.15,2013-08-18 18:40:00,
2013-08-18 11:50:00,94.3,50.8,29.83,East,87,3.0,3.0,23,0.00,,,0.00,Wunderground v.1.15,2013-08-18 18:50:00,
2013-08-18 11:55:00,95.1,51.5,29.83,ESE,120,2.0,4.0,23,0.00,,,0.00,Wunderground v.1.15,2013-08-18 18:55:00,
2013-08-18 12:00:00,95.6,49.4,29.82,SSW,201,2.0,2.0,21,0.00,,,0.00,Wunderground v.1.15,2013-08-18 19:00:00,
2013-08-18 12:10:00,95.9,50.9,29.82,NW,306,3.0,3.0,22,0.00,,,0.00,Wunderground v.1.15,2013-08-18 19:10:00,
2013-08-18 12:20:00,96.6,51.5,29.82,NW,307,4.0,4.0,22,0.00,,,0.00,Wunderground v.1.15,2013-08-18 19:20:00,
2013-08-18 12:25:00,97.1,49.4,29.82,NNE,32,3.0,4.0,20,0.00,,,0.00,Wunderground v.1.15,2013-08-18 19:25:00,
2013-08-18 12:30:00,97.1,49.4,29.81,WSW,240,3.0,5.0,20,0.00,,,0.00,Wunderground v.1.15,2013-08-18 19:30:00,
2013-08-18 12:40:00,98.5,49.1,29.81,West,271,3.0,7.0,19,0.00,,,0.00,Wunderground v.1.15,2013-08-18 19:40:00,
2013-08-18 12:45:00,98.7,49.3,29.80,SE,126,3.0,7.0,19,0.00,,,0.00,Wunderground v.1.15,2013-08-18 19:45:00,
2013-08-18 12:50:00,99.2,48.2,29.80,WNW,291,1.0,1.0,18,0.00,,,0.00,Wunderground v.1.15,2013-08-18 19:50:00,
2013-08-18 12:55:00,99.4,48.4,29.80,ESE,103,1.0,1.0,18,0.00,,,0.00,Wunderground v.1.15,2013-08-18 19:55:00,
2013-08-18 13:05:00,99.9,47.3,29.80,SE,130,2.0,2.0,17,0.00,,,0.00,Wunderground v.1.15,2013-08-18 20:05:00,
2013-08-18 13:15:00,99.7,48.7,29.79,West,276,2.0,5.0,18,0.00,,,0.00,Wunderground v.1.15,2013-08-18 20:15:00,
2013-08-18 13:20:00,100.4,47.7,29.79,WSW,250,2.0,2.0,17,0.00,,,0.00,Wunderground v.1.15,2013-08-18 20:20:00,
2013-08-18 13:25:00,100.7,47.9,29.79,SSE,148,1.0,2.0,17,0.00,,,0.00,Wunderground v.1.15,2013-08-18 20:25:00,
2013-08-18 13:30:00,101.0,48.2,29.79,SE,136,1.0,4.0,17,0.00,,,0.00,Wunderground v.1.15,2013-08-18 20:30:00,
2013-08-18 13:40:00,100.4,47.7,29.79,East,91,3.0,3.0,17,0.00,,,0.00,Wunderground v.1.15,2013-08-18 20:40:00,
2013-08-18 13:45:00,101.0,48.2,29.78,East,101,3.0,3.0,17,0.00,,,0.00,Wunderground v.1.15,2013-08-18 20:45:00,
2013-08-18 13:50:00,101.2,48.3,29.78,SE,143,1.0,6.0,17,0.00,,,0.00,Wunderground v.1.15,2013-08-18 20:50:00,
2013-08-18 13:55:00,100.7,47.9,29.78,SE,127,3.0,6.0,17,0.00,,,0.00,Wunderground v.1.15,2013-08-18 20:55:00,
2013-08-18 14:00:00,100.2,49.1,29.78,ESE,113,3.0,4.0,18,0.00,,,0.00,Wunderground v.1.15,2013-08-18 21:00:00,
2013-08-18 14:10:00,101.0,48.2,29.78,ESE,119,3.0,4.0,17,0.00,,,0.00,Wunderground v.1.15,2013-08-18 21:10:00,
2013-08-18 14:15:00,101.5,48.6,29.77,ESE,105,2.0,4.0,17,0.00,,,0.00,Wunderground v.1.15,2013-08-18 21:15:00,
2013-08-18 14:20:00,101.7,47.1,29.77,ESE,115,2.0,8.0,16,0.00,,,0.00,Wunderground v.1.15,2013-08-18 21:20:00,
2013-08-18 14:25:00,100.2,47.5,29.77,East,88,4.0,8.0,17,0.00,,,0.00,Wunderground v.1.15,2013-08-18 21:25:00,
2013-08-18 14:35:00,100.7,49.5,29.77,ENE,78,3.0,5.0,18,0.00,,,0.00,Wunderground v.1.15,2013-08-18 21:35:00,
2013-08-18 14:45:00,101.5,47.0,29.77,SE,124,3.0,3.0,16,0.00,,,0.00,Wunderground v.1.15,2013-08-18 21:45:00,
2013-08-18 14:50:00,101.7,48.7,29.77,ESE,115,2.0,2.0,17,0.00,,,0.00,Wunderground v.1.15,2013-08-18 21:50:00,
2013-08-18 15:00:00,101.7,48.7,29.76,East,92,3.0,3.0,17,0.00,,,0.00,Wunderground v.1.15,2013-08-18 22:00:00,
2013-08-18 15:05:00,101.2,48.3,29.76,East,92,3.0,3.0,17,0.00,,,0.00,Wunderground v.1.15,2013-08-18 22:05:00,
2013-08-18 15:10:00,101.7,48.7,29.76,East,83,4.0,6.0,17,0.00,,,0.00,Wunderground v.1.15,2013-08-18 22:10:00,
2013-08-18 15:20:00,101.7,47.1,29.76,East,90,4.0,4.0,16,0.00,,,0.00,Wunderground v.1.15,2013-08-18 22:20:00,
2013-08-18 15:25:00,101.5,48.6,29.76,ENE,77,5.0,5.0,17,0.00,,,0.00,Wunderground v.1.15,2013-08-18 22:25:00,
2013-08-18 15:35:00,103.1,49.9,29.75,NW,315,1.0,5.0,17,0.00,,,0.00,Wunderground v.1.15,2013-08-18 22:35:00,
2013-08-18 15:40:00,102.0,50.5,29.75,North,5,2.0,3.0,18,0.00,,,0.00,Wunderground v.1.15,2013-08-18 22:40:00,
2013-08-18 15:50:00,102.3,52.2,29.74,NW,311,4.0,4.0,19,0.00,,,0.00,Wunderground v.1.15,2013-08-18 22:50:00,
2013-08-18 15:55:00,102.8,51.2,29.74,East,99,2.0,4.0,18,0.00,,,0.00,Wunderground v.1.15,2013-08-18 22:55:00,
2013-08-18 16:00:00,102.3,50.8,29.74,NW,315,2.0,2.0,18,0.00,,,0.00,Wunderground v.1.15,2013-08-18 23:00:00,
2013-08-18 16:10:00,101.5,51.6,29.74,West,265,5.0,5.0,19,0.00,,,0.00,Wunderground v.1.15,2013-08-18 23:10:00,
2013-08-18 16:15:00,101.5,51.6,29.74,WNW,288,6.0,6.0,19,0.00,,,0.00,Wunderground v.1.15,2013-08-18 23:15:00,
2013-08-18 16:25:00,101.5,51.6,29.74,NE,53,3.0,4.0,19,0.00,,,0.00,Wunderground v.1.15,2013-08-18 23:25:00,
2013-08-18 16:30:00,101.2,52.7,29.73,North,5,3.0,3.0,20,0.00,,,0.00,Wunderground v.1.15,2013-08-18 23:30:00,
2013-08-18 16:40:00,102.0,52.0,29.73,SE,129,2.0,3.0,19,0.00,,,0.00,Wunderground v.1.15,2013-08-18 23:40:00,
2013-08-18 16:45:00,102.0,53.4,29.73,NNW,348,1.0,3.0,20,0.00,,,0.00,Wunderground v.1.15,2013-08-18 23:45:00,
2013-08-18 16:50:00,101.7,51.7,29.73,NE,39,2.0,4.0,19,0.00,,,0.00,Wunderground v.1.15,2013-08-18 23:50:00,
2013-08-18 16:55:00,102.0,52.0,29.73,East,97,2.0,4.0,19,0.00,,,0.00,Wunderground v.1.15,2013-08-18 23:55:00,
2013-08-18 17:05:00,102.0,52.0,29.72,East,82,2.0,3.0,19,0.00,,,0.00,Wunderground v.1.15,2013-08-19 00:05:00,
2013-08-18 17:15:00,102.0,52.0,29.72,WSW,238,3.0,7.0,19,0.00,,,0.00,Wunderground v.1.15,2013-08-19 00:15:00,
2013-08-18 17:20:00,101.2,51.3,29.72,NW,306,5.0,11.0,19,0.00,,,0.00,Wunderground v.1.15,2013-08-19 00:20:00,
2013-08-18 17:30:00,101.0,52.6,29.72,ESE,105,5.0,11.0,20,0.00,,,0.00,Wunderground v.1.15,2013-08-19 00:30:00,
2013-08-18 17:35:00,100.7,52.3,29.72,NE,40,4.0,11.0,20,0.00,,,0.00,Wunderground v.1.15,2013-08-19 00:35:00,
2013-08-18 17:40:00,100.7,52.3,29.72,WNW,289,4.0,8.0,20,0.00,,,0.00,Wunderground v.1.15,2013-08-19 00:40:00,
2013-08-18 17:50:00,99.9,51.7,29.72,WNW,290,5.0,8.0,20,0.00,,,0.00,Wunderground v.1.15,2013-08-19 00:50:00,
2013-08-18 17:55:00,99.9,51.7,29.72,WNW,299,5.0,8.0,20,0.00,,,0.00,Wunderground v.1.15,2013-08-19 00:55:00,
2013-08-18 18:00:00,99.9,51.7,29.72,West,265,4.0,5.0,20,0.00,,,0.00,Wunderground v.1.15,2013-08-19 01:00:00,
2013-08-18 18:05:00,99.7,52.8,29.72,West,273,4.0,5.0,21,0.00,,,0.00,Wunderground v.1.15,2013-08-19 01:05:00,
2013-08-18 18:10:00,99.7,52.8,29.72,WNW,302,3.0,3.0,21,0.00,,,0.00,Wunderground v.1.15,2013-08-19 01:10:00,
2013-08-18 18:20:00,99.7,52.8,29.72,WNW,293,3.0,3.0,21,0.00,,,0.00,Wunderground v.1.15,2013-08-19 01:20:00,
2013-08-18 18:25:00,99.4,53.8,29.72,WNW,300,3.0,4.0,22,0.00,,,0.00,Wunderground v.1.15,2013-08-19 01:25:00,
2013-08-18 18:30:00,99.0,53.5,29.72,WSW,252,4.0,4.0,22,0.00,,,0.00,Wunderground v.1.15,2013-08-19 01:30:00,
2013-08-18 18:35:00,98.7,53.3,29.72,North,350,4.0,4.0,22,0.00,,,0.00,Wunderground v.1.15,2013-08-19 01:35:00,
2013-08-18 18:40:00,98.5,53.1,29.72,WNW,294,2.0,2.0,22,0.00,,,0.00,Wunderground v.1.15,2013-08-19 01:40:00,
2013-08-18 18:50:00,97.8,52.5,29.72,NW,325,3.0,3.0,22,0.00,,,0.00,Wunderground v.1.15,2013-08-19 01:50:00,
2013-08-18 18:55:00,97.5,52.3,29.72,WNW,298,2.0,3.0,22,0.00,,,0.00,Wunderground v.1.15,2013-08-19 01:55:00,
2013-08-18 19:00:00,97.1,53.1,29.73,NNW,330,1.0,1.0,23,0.00,,,0.00,Wunderground v.1.15,2013-08-19 02:00:00,
2013-08-18 19:05:00,97.1,51.9,29.73,West,277,1.0,1.0,22,0.00,,,0.00,Wunderground v.1.15,2013-08-19 02:05:00,
2013-08-18 19:10:00,97.1,51.9,29.73,West,263,0.0,0.0,22,0.00,,,0.00,Wunderground v.1.15,2013-08-19 02:10:00,
2013-08-18 19:20:00,96.3,52.5,29.73,West,263,0.0,0.0,23,0.00,,,0.00,Wunderground v.1.15,2013-08-19 02:20:00,
2013-08-18 19:25:00,95.9,54.4,29.73,West,263,0.0,0.0,25,0.00,,,0.00,Wunderground v.1.15,2013-08-19 02:25:00,
2013-08-18 19:30:00,94.9,53.6,29.73,West,264,0.0,0.0,25,0.00,,,0.00,Wunderground v.1.15,2013-08-19 02:30:00,
2013-08-18 19:40:00,92.7,53.8,29.73,East,98,0.0,0.0,27,0.00,,,0.00,Wunderground v.1.15,2013-08-19 02:40:00,
2013-08-18 19:45:00,92.1,53.3,29.73,West,259,0.0,0.0,27,0.00,,,0.00,Wunderground v.1.15,2013-08-19 02:45:00,
2013-08-18 19:50:00,92.1,52.3,29.73,SE,125,0.0,0.0,26,0.00,,,0.00,Wunderground v.1.15,2013-08-19 02:50:00,
2013-08-18 19:55:00,91.8,53.1,29.73,SE,125,0.0,0.0,27,0.00,,,0.00,Wunderground v.1.15,2013-08-19 02:55:00,
2013-08-18 20:00:00,91.4,52.7,29.74,SE,128,0.0,0.0,27,0.00,,,0.00,Wunderground v.1.15,2013-08-19 03:00:00,
2013-08-18 20:10:00,89.9,52.4,29.74,ENE,61,0.0,0.0,28,0.00,,,0.00,Wunderground v.1.15,2013-08-19 03:10:00,
2013-08-18 20:15:00,89.0,51.7,29.74,NW,311,0.0,0.0,28,0.00,,,0.00,Wunderground v.1.15,2013-08-19 03:15:00,
2013-08-18 20:20:00,88.6,52.3,29.74,NW,311,0.0,0.0,29,0.00,,,0.00,Wunderground v.1.15,2013-08-19 03:20:00,
2013-08-18 20:30:00,87.8,52.5,29.74,NW,311,0.0,0.0,30,0.00,,,0.00,Wunderground v.1.15,2013-08-19 03:30:00,
2013-08-18 20:35:00,87.0,52.7,29.74,NW,311,0.0,0.0,31,0.00,,,0.00,Wunderground v.1.15,2013-08-19 03:35:00,
2013-08-18 20:40:00,86.1,52.8,29.74,NW,311,0.0,0.0,32,0.00,,,0.00,Wunderground v.1.15,2013-08-19 03:40:00,
2013-08-18 20:45:00,85.1,52.8,29.75,NW,311,0.0,0.0,33,0.00,,,0.00,Wunderground v.1.15,2013-08-19 03:45:00,
2013-08-18 20:50:00,84.1,53.5,29.75,NW,311,0.0,0.0,35,0.00,,,0.00,Wunderground v.1.15,2013-08-19 03:50:00,
2013-08-18 21:00:00,82.6,52.9,29.75,NW,311,0.0,0.0,36,0.00,,,0.00,Wunderground v.1.15,2013-08-19 04:00:00,
2013-08-18 21:05:00,82.0,53.2,29.75,NW,311,0.0,0.0,37,0.00,,,0.00,Wunderground v.1.15,2013-08-19 04:05:00,
2013-08-18 21:10:00,81.6,53.5,29.75,NW,311,0.0,0.0,38,0.00,,,0.00,Wunderground v.1.15,2013-08-19 04:10:00,
2013-08-18 21:15:00,81.1,53.1,29.77,NW,311,0.0,0.0,38,0.00,,,0.00,Wunderground v.1.15,2013-08-19 04:15:00,
2013-08-18 21:20:00,80.5,53.3,29.77,NW,311,0.0,0.0,39,0.00,,,0.00,Wunderground v.1.15,2013-08-19 04:20:00,
2013-08-18 21:25:00,79.8,54.0,29.77,NW,311,0.0,0.0,41,0.00,,,0.00,Wunderground v.1.15,2013-08-19 04:25:00,
2013-08-18 21:30:00,79.2,52.8,29.77,NW,311,0.0,0.0,40,0.00,,,0.00,Wunderground v.1.15,2013-08-19 04:30:00,
2013-08-18 21:35:00,78.8,53.1,29.77,NW,311,0.0,0.0,41,0.00,,,0.00,Wunderground v.1.15,2013-08-19 04:35:00,
2013-08-18 21:40:00,78.6,52.9,29.77,NW,311,0.0,0.0,41,0.00,,,0.00,Wunderground v.1.15,2013-08-19 04:40:00,
2013-08-18 21:45:00,78.3,53.3,29.77,NW,311,0.0,0.0,42,0.00,,,0.00,Wunderground v.1.15,2013-08-19 04:45:00,
2013-08-18 21:55:00,77.7,53.4,29.77,NW,311,0.0,0.0,43,0.00,,,0.00,Wunderground v.1.15,2013-08-19 04:55:00,
2013-08-18 22:00:00,77.4,53.1,29.77,NW,311,0.0,0.0,43,0.00,,,0.00,Wunderground v.1.15,2013-08-19 05:00:00,
2013-08-18 22:05:00,76.8,52.6,29.77,NW,311,0.0,2.0,43,0.00,,,0.00,Wunderground v.1.15,2013-08-19 05:05:00,
2013-08-18 22:10:00,76.3,53.4,29.77,NW,311,0.0,0.0,45,0.00,,,0.00,Wunderground v.1.15,2013-08-19 05:10:00,
2013-08-18 22:20:00,76.0,53.1,29.77,WNW,288,1.0,1.0,45,0.00,,,0.00,Wunderground v.1.15,2013-08-19 05:20:00,
2013-08-18 22:25:00,75.8,52.9,29.77,WNW,288,0.0,1.0,45,0.00,,,0.00,Wunderground v.1.15,2013-08-19 05:25:00,
2013-08-18 22:30:00,75.6,52.8,29.77,WNW,288,0.0,0.0,45,0.00,,,0.00,Wunderground v.1.15,2013-08-19 05:30:00,
2013-08-18 22:35:00,75.3,53.1,29.77,WNW,288,0.0,0.0,46,0.00,,,0.00,Wunderground v.1.15,2013-08-19 05:35:00,
2013-08-18 22:40:00,75.1,52.9,29.77,WNW,288,0.0,0.0,46,0.00,,,0.00,Wunderground v.1.15,2013-08-19 05:40:00,
2013-08-18 22:50:00,74.4,52.9,29.77,WNW,288,0.0,0.0,47,0.00,,,0.00,Wunderground v.1.15,2013-08-19 05:50:00,
2013-08-18 22:55:00,73.9,53.0,29.77,WNW,288,1.0,1.0,48,0.00,,,0.00,Wunderground v.1.15,2013-08-19 05:55:00,
2013-08-18 23:00:00,73.7,52.8,29.78,WNW,288,1.0,1.0,48,0.00,,,0.00,Wunderground v.1.15,2013-08-19 06:00:00,
2013-08-18 23:05:00,73.3,53.0,29.78,WNW,288,0.0,1.0,49,0.00,,,0.00,Wunderground v.1.15,2013-08-19 06:05:00,
2013-08-18 23:10:00,73.2,52.9,29.78,WNW,288,0.0,0.0,49,0.00,,,0.00,Wunderground v.1.15,2013-08-19 06:10:00,
2013-08-18 23:20:00,72.7,53.0,29.78,WNW,288,0.0,0.0,50,0.00,,,0.00,Wunderground v.1.15,2013-08-19 06:20:00,
2013-08-18 23:25:00,72.3,52.6,29.78,WNW,288,0.0,0.0,50,0.00,,,0.00,Wunderground v.1.15,2013-08-19 06:25:00,
2013-08-18 23:30:00,72.0,52.9,29.78,WNW,288,0.0,0.0,51,0.00,,,0.00,Wunderground v.1.15,2013-08-19 06:30:00,
2013-08-18 23:35:00,71.8,52.7,29.78,WNW,288,0.0,0.0,51,0.00,,,0.00,Wunderground v.1.15,2013-08-19 06:35:00,
2013-08-18 23:45:00,71.6,53.0,29.78,WNW,288,0.0,0.0,52,0.00,,,0.00,Wunderground v.1.15,2013-08-19 06:45:00,
2013-08-18 23:50:00,71.6,53.0,29.78,WNW,288,0.0,0.0,52,0.00,,,0.00,Wunderground v.1.15,2013-08-19 06:50:00,
2013-08-18 23:55:00,71.6,53.0,29.78,WNW,288,0.0,0.0,52,0.00,,,0.00,Wunderground v.1.15,2013-08-19 06:55:00,